sensor_id;sensor_type;location;lat;lon;timestamp;P1;durP1;ratioP1;P2;durP2;ratioP2
62030;SDS011;62035;52.094;5.112;2024-03-08T00:01:21;31.08;;;14.00;;
62030;SDS011;62035;52.094;5.112;2024-03-08T00:03:49;34.85;;;14.18;;
62030;SDS011;62035;52.094;5.112;2024-03-08T00:06:17;35.70;;;12.93;;
62030;SDS011;62035;52.094;5.112;2024-03-08T00:08:45;43.33;;;15.05;;
62030;SDS011;62035;52.094;5.112;2024-03-08T00:11:13;30.88;;;13.85;;
62030;SDS011;62035;52.094;5.112;2024-03-08T00:13:41;31.08;;;13.60;;
62030;SDS011;62035;52.094;5.112;2024-03-08T00:16:08;34.65;;;14.38;;
62030;SDS011;62035;52.094;5.112;2024-03-08T00:18:35;36.35;;;14.35;;
62030;SDS011;62035;52.094;5.112;2024-03-08T00:21:03;33.75;;;14.50;;
62030;SDS011;62035;52.094;5.112;2024-03-08T00:23:30;31.63;;;14.60;;
62030;SDS011;62035;52.094;5.112;2024-03-08T00:25:59;33.35;;;14.82;;
62030;SDS011;62035;52.094;5.112;2024-03-08T00:28:27;32.53;;;14.20;;
62030;SDS011;62035;52.094;5.112;2024-03-08T00:30:54;33.50;;;13.68;;
62030;SDS011;62035;52.094;5.112;2024-03-08T00:33:22;29.85;;;13.63;;
62030;SDS011;62035;52.094;5.112;2024-03-08T00:35:49;29.33;;;13.73;;
62030;SDS011;62035;52.094;5.112;2024-03-08T00:38:16;31.15;;;13.52;;
62030;SDS011;62035;52.094;5.112;2024-03-08T00:40:44;31.92;;;13.55;;
62030;SDS011;62035;52.094;5.112;2024-03-08T00:43:11;30.15;;;14.20;;
62030;SDS011;62035;52.094;5.112;2024-03-08T00:45:40;36.53;;;13.38;;
62030;SDS011;62035;52.094;5.112;2024-03-08T00:48:08;29.88;;;14.05;;
62030;SDS011;62035;52.094;5.112;2024-03-08T00:50:36;28.65;;;13.82;;
62030;SDS011;62035;52.094;5.112;2024-03-08T00:53:03;29.83;;;13.65;;
62030;SDS011;62035;52.094;5.112;2024-03-08T00:55:31;34.67;;;14.55;;
62030;SDS011;62035;52.094;5.112;2024-03-08T00:57:58;25.85;;;13.10;;
62030;SDS011;62035;52.094;5.112;2024-03-08T01:00:26;28.15;;;13.93;;
62030;SDS011;62035;52.094;5.112;2024-03-08T01:02:54;33.95;;;14.18;;
62030;SDS011;62035;52.094;5.112;2024-03-08T01:05:22;28.65;;;14.77;;
62030;SDS011;62035;52.094;5.112;2024-03-08T01:07:50;30.13;;;14.40;;
62030;SDS011;62035;52.094;5.112;2024-03-08T01:10:17;30.73;;;13.48;;
62030;SDS011;62035;52.094;5.112;2024-03-08T01:12:44;31.10;;;14.85;;
62030;SDS011;62035;52.094;5.112;2024-03-08T01:15:11;29.25;;;13.57;;
62030;SDS011;62035;52.094;5.112;2024-03-08T01:17:39;28.65;;;13.43;;
62030;SDS011;62035;52.094;5.112;2024-03-08T01:20:08;27.58;;;13.13;;
62030;SDS011;62035;52.094;5.112;2024-03-08T01:22:36;31.30;;;13.45;;
62030;SDS011;62035;52.094;5.112;2024-03-08T01:25:04;30.70;;;14.00;;
62030;SDS011;62035;52.094;5.112;2024-03-08T01:27:31;34.72;;;14.60;;
62030;SDS011;62035;52.094;5.112;2024-03-08T01:30:02;28.50;;;13.48;;
62030;SDS011;62035;52.094;5.112;2024-03-08T01:32:30;30.00;;;13.65;;
62030;SDS011;62035;52.094;5.112;2024-03-08T01:34:57;31.13;;;13.80;;
62030;SDS011;62035;52.094;5.112;2024-03-08T01:37:26;30.02;;;13.23;;
62030;SDS011;62035;52.094;5.112;2024-03-08T01:39:55;30.75;;;13.80;;
62030;SDS011;62035;52.094;5.112;2024-03-08T01:42:22;25.55;;;12.82;;
62030;SDS011;62035;52.094;5.112;2024-03-08T01:44:49;36.35;;;13.95;;
62030;SDS011;62035;52.094;5.112;2024-03-08T01:47:17;30.35;;;14.00;;
62030;SDS011;62035;52.094;5.112;2024-03-08T01:49:48;29.33;;;13.65;;
62030;SDS011;62035;52.094;5.112;2024-03-08T01:52:16;30.10;;;14.43;;
62030;SDS011;62035;52.094;5.112;2024-03-08T01:54:49;31.35;;;14.20;;
62030;SDS011;62035;52.094;5.112;2024-03-08T01:57:16;23.85;;;13.73;;
62030;SDS011;62035;52.094;5.112;2024-03-08T01:59:44;26.75;;;13.45;;
62030;SDS011;62035;52.094;5.112;2024-03-08T02:02:11;30.33;;;13.48;;
62030;SDS011;62035;52.094;5.112;2024-03-08T02:04:41;24.83;;;13.93;;
62030;SDS011;62035;52.094;5.112;2024-03-08T02:07:08;29.23;;;13.32;;
62030;SDS011;62035;52.094;5.112;2024-03-08T02:09:36;27.98;;;14.07;;
62030;SDS011;62035;52.094;5.112;2024-03-08T02:12:04;29.20;;;14.45;;
62030;SDS011;62035;52.094;5.112;2024-03-08T02:14:32;31.38;;;13.95;;
62030;SDS011;62035;52.094;5.112;2024-03-08T02:17:00;27.48;;;13.30;;
62030;SDS011;62035;52.094;5.112;2024-03-08T02:19:27;31.38;;;13.93;;
62030;SDS011;62035;52.094;5.112;2024-03-08T02:21:56;29.27;;;13.10;;
62030;SDS011;62035;52.094;5.112;2024-03-08T02:24:24;34.42;;;14.27;;
62030;SDS011;62035;52.094;5.112;2024-03-08T02:26:52;27.00;;;14.25;;
62030;SDS011;62035;52.094;5.112;2024-03-08T02:29:19;30.05;;;14.48;;
62030;SDS011;62035;52.094;5.112;2024-03-08T02:31:47;28.92;;;14.02;;
62030;SDS011;62035;52.094;5.112;2024-03-08T02:34:17;30.38;;;14.55;;
62030;SDS011;62035;52.094;5.112;2024-03-08T02:36:44;26.30;;;13.90;;
62030;SDS011;62035;52.094;5.112;2024-03-08T02:39:14;31.27;;;13.48;;
62030;SDS011;62035;52.094;5.112;2024-03-08T02:41:41;27.77;;;12.80;;
62030;SDS011;62035;52.094;5.112;2024-03-08T02:44:08;27.10;;;13.38;;
62030;SDS011;62035;52.094;5.112;2024-03-08T02:46:37;31.70;;;13.38;;
62030;SDS011;62035;52.094;5.112;2024-03-08T02:49:04;28.00;;;13.50;;
62030;SDS011;62035;52.094;5.112;2024-03-08T02:51:33;28.10;;;13.65;;
62030;SDS011;62035;52.094;5.112;2024-03-08T02:54:01;29.15;;;12.50;;
62030;SDS011;62035;52.094;5.112;2024-03-08T02:56:31;30.75;;;14.07;;
62030;SDS011;62035;52.094;5.112;2024-03-08T02:59:00;27.65;;;14.38;;
62030;SDS011;62035;52.094;5.112;2024-03-08T03:01:27;30.23;;;14.65;;
62030;SDS011;62035;52.094;5.112;2024-03-08T03:03:55;29.55;;;14.32;;
62030;SDS011;62035;52.094;5.112;2024-03-08T03:06:22;29.08;;;13.35;;
62030;SDS011;62035;52.094;5.112;2024-03-08T03:08:49;32.22;;;14.20;;
62030;SDS011;62035;52.094;5.112;2024-03-08T03:11:16;26.83;;;13.52;;
62030;SDS011;62035;52.094;5.112;2024-03-08T03:13:45;29.45;;;13.73;;
62030;SDS011;62035;52.094;5.112;2024-03-08T03:16:16;30.60;;;13.48;;
62030;SDS011;62035;52.094;5.112;2024-03-08T03:18:45;29.65;;;14.90;;
62030;SDS011;62035;52.094;5.112;2024-03-08T03:21:12;33.42;;;13.95;;
62030;SDS011;62035;52.094;5.112;2024-03-08T03:23:40;33.08;;;15.05;;
62030;SDS011;62035;52.094;5.112;2024-03-08T03:26:08;35.80;;;15.50;;
62030;SDS011;62035;52.094;5.112;2024-03-08T03:28:37;31.95;;;14.65;;
62030;SDS011;62035;52.094;5.112;2024-03-08T03:31:07;29.67;;;15.20;;
62030;SDS011;62035;52.094;5.112;2024-03-08T03:33:39;31.58;;;14.48;;
62030;SDS011;62035;52.094;5.112;2024-03-08T03:36:07;35.40;;;16.13;;
62030;SDS011;62035;52.094;5.112;2024-03-08T03:38:35;32.38;;;14.20;;
62030;SDS011;62035;52.094;5.112;2024-03-08T03:41:03;29.30;;;14.07;;
62030;SDS011;62035;52.094;5.112;2024-03-08T03:43:35;33.88;;;14.60;;
62030;SDS011;62035;52.094;5.112;2024-03-08T03:46:06;29.10;;;13.50;;
62030;SDS011;62035;52.094;5.112;2024-03-08T03:48:36;31.55;;;15.48;;
62030;SDS011;62035;52.094;5.112;2024-03-08T03:51:03;31.75;;;14.82;;
62030;SDS011;62035;52.094;5.112;2024-03-08T03:53:30;28.45;;;15.10;;
62030;SDS011;62035;52.094;5.112;2024-03-08T03:55:58;34.65;;;15.52;;
62030;SDS011;62035;52.094;5.112;2024-03-08T03:58:25;31.38;;;13.77;;
62030;SDS011;62035;52.094;5.112;2024-03-08T04:00:53;31.33;;;14.85;;
62030;SDS011;62035;52.094;5.112;2024-03-08T04:03:21;30.88;;;15.63;;
62030;SDS011;62035;52.094;5.112;2024-03-08T04:05:49;29.10;;;15.43;;
62030;SDS011;62035;52.094;5.112;2024-03-08T04:08:16;28.30;;;15.13;;
62030;SDS011;62035;52.094;5.112;2024-03-08T04:10:43;29.50;;;14.10;;
62030;SDS011;62035;52.094;5.112;2024-03-08T04:13:10;38.28;;;15.13;;
62030;SDS011;62035;52.094;5.112;2024-03-08T04:15:38;27.52;;;14.15;;
62030;SDS011;62035;52.094;5.112;2024-03-08T04:18:05;31.83;;;14.90;;
62030;SDS011;62035;52.094;5.112;2024-03-08T04:20:33;27.58;;;13.68;;
62030;SDS011;62035;52.094;5.112;2024-03-08T04:23:01;32.67;;;15.25;;
62030;SDS011;62035;52.094;5.112;2024-03-08T04:25:29;29.65;;;15.07;;
62030;SDS011;62035;52.094;5.112;2024-03-08T04:27:56;29.70;;;14.73;;
62030;SDS011;62035;52.094;5.112;2024-03-08T04:30:23;35.10;;;15.18;;
62030;SDS011;62035;52.094;5.112;2024-03-08T04:32:50;26.08;;;13.63;;
62030;SDS011;62035;52.094;5.112;2024-03-08T04:35:18;30.23;;;15.45;;
62030;SDS011;62035;52.094;5.112;2024-03-08T04:37:47;27.10;;;13.75;;
62030;SDS011;62035;52.094;5.112;2024-03-08T04:40:14;27.17;;;14.15;;
62030;SDS011;62035;52.094;5.112;2024-03-08T04:42:41;29.92;;;15.25;;
62030;SDS011;62035;52.094;5.112;2024-03-08T04:45:09;28.42;;;14.02;;
62030;SDS011;62035;52.094;5.112;2024-03-08T04:47:37;23.00;;;12.65;;
62030;SDS011;62035;52.094;5.112;2024-03-08T04:50:05;28.90;;;14.65;;
62030;SDS011;62035;52.094;5.112;2024-03-08T04:52:34;27.50;;;13.52;;
62030;SDS011;62035;52.094;5.112;2024-03-08T04:55:04;29.35;;;13.68;;
62030;SDS011;62035;52.094;5.112;2024-03-08T04:57:32;28.33;;;13.75;;
62030;SDS011;62035;52.094;5.112;2024-03-08T04:59:59;28.05;;;13.75;;
62030;SDS011;62035;52.094;5.112;2024-03-08T05:02:26;23.35;;;12.68;;
62030;SDS011;62035;52.094;5.112;2024-03-08T05:04:53;33.75;;;14.60;;
62030;SDS011;62035;52.094;5.112;2024-03-08T05:07:20;31.15;;;14.77;;
62030;SDS011;62035;52.094;5.112;2024-03-08T05:09:48;26.48;;;14.55;;
62030;SDS011;62035;52.094;5.112;2024-03-08T05:12:18;27.58;;;13.40;;
62030;SDS011;62035;52.094;5.112;2024-03-08T05:14:45;23.05;;;13.15;;
62030;SDS011;62035;52.094;5.112;2024-03-08T05:17:15;36.00;;;13.32;;
62030;SDS011;62035;52.094;5.112;2024-03-08T05:19:43;28.27;;;14.10;;
62030;SDS011;62035;52.094;5.112;2024-03-08T05:22:10;29.67;;;13.77;;
62030;SDS011;62035;52.094;5.112;2024-03-08T05:24:37;26.92;;;14.02;;
62030;SDS011;62035;52.094;5.112;2024-03-08T05:27:04;28.70;;;14.68;;
62030;SDS011;62035;52.094;5.112;2024-03-08T05:29:33;26.02;;;14.60;;
62030;SDS011;62035;52.094;5.112;2024-03-08T05:32:00;26.65;;;14.15;;
62030;SDS011;62035;52.094;5.112;2024-03-08T05:34:28;24.08;;;13.60;;
62030;SDS011;62035;52.094;5.112;2024-03-08T05:36:55;26.65;;;14.13;;
62030;SDS011;62035;52.094;5.112;2024-03-08T05:39:24;21.70;;;13.25;;
62030;SDS011;62035;52.094;5.112;2024-03-08T05:41:51;29.10;;;14.80;;
62030;SDS011;62035;52.094;5.112;2024-03-08T05:44:20;30.60;;;14.77;;
62030;SDS011;62035;52.094;5.112;2024-03-08T05:46:49;28.48;;;14.55;;
62030;SDS011;62035;52.094;5.112;2024-03-08T05:49:16;29.45;;;14.48;;
62030;SDS011;62035;52.094;5.112;2024-03-08T05:51:43;24.77;;;14.32;;
62030;SDS011;62035;52.094;5.112;2024-03-08T05:54:13;25.48;;;13.20;;
62030;SDS011;62035;52.094;5.112;2024-03-08T05:56:40;26.02;;;13.98;;
62030;SDS011;62035;52.094;5.112;2024-03-08T05:59:09;25.40;;;12.65;;
62030;SDS011;62035;52.094;5.112;2024-03-08T06:01:36;25.77;;;13.27;;
62030;SDS011;62035;52.094;5.112;2024-03-08T06:04:07;25.00;;;14.50;;
62030;SDS011;62035;52.094;5.112;2024-03-08T06:06:35;29.13;;;13.60;;
62030;SDS011;62035;52.094;5.112;2024-03-08T06:09:03;29.90;;;13.95;;
62030;SDS011;62035;52.094;5.112;2024-03-08T06:11:35;29.65;;;14.35;;
62030;SDS011;62035;52.094;5.112;2024-03-08T06:14:03;31.10;;;15.80;;
62030;SDS011;62035;52.094;5.112;2024-03-08T06:16:30;24.60;;;13.43;;
62030;SDS011;62035;52.094;5.112;2024-03-08T06:18:59;26.00;;;13.85;;
62030;SDS011;62035;52.094;5.112;2024-03-08T06:21:29;30.58;;;15.82;;
62030;SDS011;62035;52.094;5.112;2024-03-08T06:23:57;26.40;;;14.48;;
62030;SDS011;62035;52.094;5.112;2024-03-08T06:26:24;25.55;;;14.38;;
62030;SDS011;62035;52.094;5.112;2024-03-08T06:28:54;25.25;;;13.10;;
62030;SDS011;62035;52.094;5.112;2024-03-08T06:31:21;23.88;;;12.80;;
62030;SDS011;62035;52.094;5.112;2024-03-08T06:33:49;24.88;;;13.40;;
62030;SDS011;62035;52.094;5.112;2024-03-08T06:36:16;27.05;;;13.48;;
62030;SDS011;62035;52.094;5.112;2024-03-08T06:38:46;27.60;;;14.73;;
62030;SDS011;62035;52.094;5.112;2024-03-08T06:41:13;30.33;;;14.25;;
62030;SDS011;62035;52.094;5.112;2024-03-08T06:43:41;31.85;;;14.20;;
62030;SDS011;62035;52.094;5.112;2024-03-08T06:46:09;29.70;;;13.93;;
62030;SDS011;62035;52.094;5.112;2024-03-08T06:48:38;27.05;;;14.35;;
62030;SDS011;62035;52.094;5.112;2024-03-08T06:51:05;27.80;;;14.23;;
62030;SDS011;62035;52.094;5.112;2024-03-08T06:53:32;29.92;;;14.85;;
62030;SDS011;62035;52.094;5.112;2024-03-08T06:56:02;32.30;;;14.05;;
62030;SDS011;62035;52.094;5.112;2024-03-08T06:58:29;25.92;;;14.05;;
62030;SDS011;62035;52.094;5.112;2024-03-08T07:00:58;24.02;;;13.77;;
62030;SDS011;62035;52.094;5.112;2024-03-08T07:03:26;30.95;;;13.50;;
62030;SDS011;62035;52.094;5.112;2024-03-08T07:05:55;29.10;;;14.32;;
62030;SDS011;62035;52.094;5.112;2024-03-08T07:08:23;22.40;;;12.32;;
62030;SDS011;62035;52.094;5.112;2024-03-08T07:10:52;24.00;;;13.88;;
62030;SDS011;62035;52.094;5.112;2024-03-08T07:13:21;23.17;;;12.90;;
62030;SDS011;62035;52.094;5.112;2024-03-08T07:15:48;25.40;;;13.07;;
62030;SDS011;62035;52.094;5.112;2024-03-08T07:18:17;26.45;;;13.65;;
62030;SDS011;62035;52.094;5.112;2024-03-08T07:20:45;24.35;;;13.55;;
62030;SDS011;62035;52.094;5.112;2024-03-08T07:23:12;24.75;;;13.15;;
62030;SDS011;62035;52.094;5.112;2024-03-08T07:25:59;28.70;;;14.15;;
62030;SDS011;62035;52.094;5.112;2024-03-08T07:28:28;22.38;;;12.68;;
62030;SDS011;62035;52.094;5.112;2024-03-08T07:30:56;28.27;;;14.73;;
62030;SDS011;62035;52.094;5.112;2024-03-08T07:33:38;27.10;;;13.85;;
62030;SDS011;62035;52.094;5.112;2024-03-08T07:36:05;26.88;;;13.95;;
62030;SDS011;62035;52.094;5.112;2024-03-08T07:38:32;29.08;;;15.95;;
62030;SDS011;62035;52.094;5.112;2024-03-08T07:40:59;25.65;;;13.32;;
62030;SDS011;62035;52.094;5.112;2024-03-08T07:43:27;30.33;;;13.13;;
62030;SDS011;62035;52.094;5.112;2024-03-08T07:45:55;29.52;;;14.50;;
62030;SDS011;62035;52.094;5.112;2024-03-08T07:48:22;30.65;;;15.43;;
62030;SDS011;62035;52.094;5.112;2024-03-08T07:50:50;28.08;;;14.75;;
62030;SDS011;62035;52.094;5.112;2024-03-08T07:53:17;30.17;;;15.70;;
62030;SDS011;62035;52.094;5.112;2024-03-08T07:55:44;24.65;;;13.93;;
62030;SDS011;62035;52.094;5.112;2024-03-08T07:58:11;26.63;;;14.68;;
62030;SDS011;62035;52.094;5.112;2024-03-08T08:00:40;24.77;;;12.93;;
62030;SDS011;62035;52.094;5.112;2024-03-08T08:03:08;26.67;;;15.70;;
62030;SDS011;62035;52.094;5.112;2024-03-08T08:05:35;26.73;;;13.38;;
62030;SDS011;62035;52.094;5.112;2024-03-08T08:08:04;27.48;;;13.65;;
62030;SDS011;62035;52.094;5.112;2024-03-08T08:10:32;25.83;;;14.52;;
62030;SDS011;62035;52.094;5.112;2024-03-08T08:12:59;26.23;;;14.15;;
62030;SDS011;62035;52.094;5.112;2024-03-08T08:15:26;24.52;;;13.65;;
62030;SDS011;62035;52.094;5.112;2024-03-08T08:17:55;27.90;;;14.48;;
62030;SDS011;62035;52.094;5.112;2024-03-08T08:20:23;27.67;;;14.35;;
62030;SDS011;62035;52.094;5.112;2024-03-08T08:22:51;27.60;;;14.82;;
62030;SDS011;62035;52.094;5.112;2024-03-08T08:25:20;23.13;;;13.93;;
62030;SDS011;62035;52.094;5.112;2024-03-08T08:27:50;31.27;;;13.95;;
62030;SDS011;62035;52.094;5.112;2024-03-08T08:30:18;26.45;;;13.95;;
62030;SDS011;62035;52.094;5.112;2024-03-08T08:32:46;22.70;;;13.63;;
62030;SDS011;62035;52.094;5.112;2024-03-08T08:35:15;32.33;;;14.07;;
62030;SDS011;62035;52.094;5.112;2024-03-08T08:37:45;30.53;;;13.90;;
62030;SDS011;62035;52.094;5.112;2024-03-08T08:40:12;24.40;;;13.82;;
62030;SDS011;62035;52.094;5.112;2024-03-08T08:42:43;28.90;;;14.57;;
62030;SDS011;62035;52.094;5.112;2024-03-08T08:45:12;25.45;;;14.07;;
62030;SDS011;62035;52.094;5.112;2024-03-08T08:47:39;24.02;;;13.50;;
62030;SDS011;62035;52.094;5.112;2024-03-08T08:50:08;24.17;;;13.63;;
62030;SDS011;62035;52.094;5.112;2024-03-08T08:52:38;28.80;;;14.32;;
62030;SDS011;62035;52.094;5.112;2024-03-08T08:55:06;28.02;;;14.13;;
62030;SDS011;62035;52.094;5.112;2024-03-08T08:57:33;25.15;;;13.95;;
62030;SDS011;62035;52.094;5.112;2024-03-08T09:00:01;27.00;;;13.60;;
62030;SDS011;62035;52.094;5.112;2024-03-08T09:02:32;24.27;;;12.82;;
62030;SDS011;62035;52.094;5.112;2024-03-08T09:05:00;28.33;;;13.95;;
62030;SDS011;62035;52.094;5.112;2024-03-08T09:07:27;26.05;;;14.07;;
62030;SDS011;62035;52.094;5.112;2024-03-08T09:09:56;27.15;;;14.18;;
62030;SDS011;62035;52.094;5.112;2024-03-08T09:12:24;23.23;;;13.00;;
62030;SDS011;62035;52.094;5.112;2024-03-08T09:14:51;21.63;;;12.70;;
62030;SDS011;62035;52.094;5.112;2024-03-08T09:17:18;23.92;;;13.35;;
62030;SDS011;62035;52.094;5.112;2024-03-08T09:19:46;22.10;;;12.07;;
62030;SDS011;62035;52.094;5.112;2024-03-08T09:22:14;20.05;;;12.63;;
62030;SDS011;62035;52.094;5.112;2024-03-08T09:24:41;29.80;;;13.30;;
62030;SDS011;62035;52.094;5.112;2024-03-08T09:27:10;24.73;;;12.88;;
62030;SDS011;62035;52.094;5.112;2024-03-08T09:29:37;24.67;;;12.77;;
62030;SDS011;62035;52.094;5.112;2024-03-08T09:32:04;26.30;;;13.70;;
62030;SDS011;62035;52.094;5.112;2024-03-08T09:34:33;25.13;;;12.82;;
62030;SDS011;62035;52.094;5.112;2024-03-08T09:37:00;26.92;;;14.05;;
62030;SDS011;62035;52.094;5.112;2024-03-08T09:39:29;23.58;;;12.95;;
62030;SDS011;62035;52.094;5.112;2024-03-08T09:41:58;27.92;;;14.40;;
62030;SDS011;62035;52.094;5.112;2024-03-08T09:44:26;29.10;;;13.38;;
62030;SDS011;62035;52.094;5.112;2024-03-08T09:46:54;23.88;;;13.32;;
62030;SDS011;62035;52.094;5.112;2024-03-08T09:49:21;26.80;;;13.60;;
62030;SDS011;62035;52.094;5.112;2024-03-08T09:51:49;24.05;;;13.65;;
62030;SDS011;62035;52.094;5.112;2024-03-08T09:54:17;24.33;;;13.52;;
62030;SDS011;62035;52.094;5.112;2024-03-08T09:56:46;25.17;;;13.13;;
62030;SDS011;62035;52.094;5.112;2024-03-08T09:59:15;21.45;;;13.07;;
62030;SDS011;62035;52.094;5.112;2024-03-08T10:02:08;23.60;;;13.40;;
62030;SDS011;62035;52.094;5.112;2024-03-08T10:04:41;23.33;;;12.82;;
62030;SDS011;62035;52.094;5.112;2024-03-08T10:07:11;23.35;;;12.35;;
62030;SDS011;62035;52.094;5.112;2024-03-08T10:09:38;21.33;;;11.90;;
62030;SDS011;62035;52.094;5.112;2024-03-08T10:12:07;25.73;;;12.55;;
62030;SDS011;62035;52.094;5.112;2024-03-08T10:14:38;25.63;;;13.70;;
62030;SDS011;62035;52.094;5.112;2024-03-08T10:17:06;26.27;;;14.32;;
62030;SDS011;62035;52.094;5.112;2024-03-08T10:19:35;24.63;;;12.82;;
62030;SDS011;62035;52.094;5.112;2024-03-08T10:22:03;24.35;;;12.27;;
62030;SDS011;62035;52.094;5.112;2024-03-08T10:24:30;20.88;;;11.88;;
62030;SDS011;62035;52.094;5.112;2024-03-08T10:26:59;20.63;;;11.48;;
62030;SDS011;62035;52.094;5.112;2024-03-08T10:29:30;22.27;;;13.02;;
62030;SDS011;62035;52.094;5.112;2024-03-08T10:31:58;20.52;;;12.23;;
62030;SDS011;62035;52.094;5.112;2024-03-08T10:34:27;22.55;;;11.55;;
62030;SDS011;62035;52.094;5.112;2024-03-08T10:36:55;22.48;;;12.05;;
62030;SDS011;62035;52.094;5.112;2024-03-08T10:39:31;23.10;;;12.00;;
62030;SDS011;62035;52.094;5.112;2024-03-08T10:42:02;23.80;;;12.45;;
62030;SDS011;62035;52.094;5.112;2024-03-08T10:44:35;29.58;;;12.35;;
62030;SDS011;62035;52.094;5.112;2024-03-08T10:47:13;20.10;;;11.75;;
62030;SDS011;62035;52.094;5.112;2024-03-08T10:49:50;20.80;;;12.15;;
62030;SDS011;62035;52.094;5.112;2024-03-08T10:52:20;21.25;;;11.70;;
62030;SDS011;62035;52.094;5.112;2024-03-08T10:54:48;20.13;;;12.15;;
62030;SDS011;62035;52.094;5.112;2024-03-08T10:57:19;22.07;;;12.17;;
62030;SDS011;62035;52.094;5.112;2024-03-08T10:59:49;21.70;;;11.73;;
62030;SDS011;62035;52.094;5.112;2024-03-08T11:02:17;20.80;;;12.02;;
62030;SDS011;62035;52.094;5.112;2024-03-08T11:04:46;21.17;;;11.52;;
62030;SDS011;62035;52.094;5.112;2024-03-08T11:07:16;21.58;;;11.48;;
62030;SDS011;62035;52.094;5.112;2024-03-08T11:09:47;19.58;;;10.65;;
62030;SDS011;62035;52.094;5.112;2024-03-08T11:12:24;18.70;;;10.20;;
62030;SDS011;62035;52.094;5.112;2024-03-08T11:14:55;20.88;;;10.55;;
62030;SDS011;62035;52.094;5.112;2024-03-08T11:17:26;21.13;;;10.70;;
62030;SDS011;62035;52.094;5.112;2024-03-08T11:20:10;21.08;;;10.43;;
62030;SDS011;62035;52.094;5.112;2024-03-08T11:22:47;17.73;;;10.23;;
62030;SDS011;62035;52.094;5.112;2024-03-08T11:33:52;19.73;;;9.55;;
62030;SDS011;62035;52.094;5.112;2024-03-08T11:36:20;18.90;;;9.77;;
62030;SDS011;62035;52.094;5.112;2024-03-08T11:38:50;16.25;;;9.77;;
62030;SDS011;62035;52.094;5.112;2024-03-08T11:41:20;16.58;;;10.18;;
62030;SDS011;62035;52.094;5.112;2024-03-08T11:43:49;18.88;;;10.48;;
62030;SDS011;62035;52.094;5.112;2024-03-08T11:46:30;20.80;;;10.10;;
62030;SDS011;62035;52.094;5.112;2024-03-08T11:48:58;20.52;;;10.75;;
62030;SDS011;62035;52.094;5.112;2024-03-08T11:51:26;15.10;;;9.43;;
62030;SDS011;62035;52.094;5.112;2024-03-08T11:53:55;17.40;;;9.50;;
62030;SDS011;62035;52.094;5.112;2024-03-08T11:56:22;18.77;;;9.18;;
62030;SDS011;62035;52.094;5.112;2024-03-08T11:58:52;18.52;;;10.57;;
62030;SDS011;62035;52.094;5.112;2024-03-08T12:01:22;18.15;;;10.00;;
62030;SDS011;62035;52.094;5.112;2024-03-08T12:03:52;15.73;;;9.52;;
62030;SDS011;62035;52.094;5.112;2024-03-08T12:06:20;15.13;;;9.20;;
62030;SDS011;62035;52.094;5.112;2024-03-08T12:08:47;15.43;;;9.02;;
62030;SDS011;62035;52.094;5.112;2024-03-08T12:11:16;16.67;;;9.40;;
62030;SDS011;62035;52.094;5.112;2024-03-08T12:13:44;13.85;;;8.63;;
62030;SDS011;62035;52.094;5.112;2024-03-08T12:16:16;17.05;;;8.68;;
62030;SDS011;62035;52.094;5.112;2024-03-08T12:18:44;19.38;;;8.57;;
62030;SDS011;62035;52.094;5.112;2024-03-08T12:21:11;16.00;;;9.13;;
62030;SDS011;62035;52.094;5.112;2024-03-08T12:23:43;14.50;;;8.70;;
62030;SDS011;62035;52.094;5.112;2024-03-08T12:26:11;17.92;;;9.90;;
62030;SDS011;62035;52.094;5.112;2024-03-08T12:28:41;15.10;;;9.48;;
62030;SDS011;62035;52.094;5.112;2024-03-08T12:31:11;16.05;;;9.07;;
62030;SDS011;62035;52.094;5.112;2024-03-08T12:33:46;19.25;;;9.30;;
62030;SDS011;62035;52.094;5.112;2024-03-08T12:36:15;16.13;;;9.45;;
62030;SDS011;62035;52.094;5.112;2024-03-08T12:38:43;16.02;;;8.68;;
62030;SDS011;62035;52.094;5.112;2024-03-08T12:41:13;18.25;;;9.00;;
62030;SDS011;62035;52.094;5.112;2024-03-08T12:43:42;16.60;;;8.63;;
62030;SDS011;62035;52.094;5.112;2024-03-08T12:46:14;17.10;;;9.32;;
62030;SDS011;62035;52.094;5.112;2024-03-08T12:48:41;21.98;;;9.60;;
62030;SDS011;62035;52.094;5.112;2024-03-08T12:51:12;15.68;;;9.90;;
62030;SDS011;62035;52.094;5.112;2024-03-08T12:53:41;21.00;;;9.40;;
62030;SDS011;62035;52.094;5.112;2024-03-08T12:56:09;17.73;;;10.25;;
62030;SDS011;62035;52.094;5.112;2024-03-08T12:58:37;14.65;;;9.27;;
62030;SDS011;62035;52.094;5.112;2024-03-08T13:01:07;19.48;;;10.45;;
62030;SDS011;62035;52.094;5.112;2024-03-08T13:03:34;19.58;;;10.30;;
62030;SDS011;62035;52.094;5.112;2024-03-08T13:06:02;15.70;;;9.10;;
62030;SDS011;62035;52.094;5.112;2024-03-08T13:08:31;20.55;;;10.70;;
62030;SDS011;62035;52.094;5.112;2024-03-08T13:11:01;15.25;;;8.80;;
62030;SDS011;62035;52.094;5.112;2024-03-08T13:13:29;18.00;;;10.40;;
62030;SDS011;62035;52.094;5.112;2024-03-08T13:15:56;16.05;;;9.77;;
62030;SDS011;62035;52.094;5.112;2024-03-08T13:18:28;20.13;;;9.10;;
62030;SDS011;62035;52.094;5.112;2024-03-08T13:20:55;16.83;;;9.02;;
62030;SDS011;62035;52.094;5.112;2024-03-08T13:23:23;16.00;;;9.02;;
62030;SDS011;62035;52.094;5.112;2024-03-08T13:25:50;14.93;;;9.68;;
62030;SDS011;62035;52.094;5.112;2024-03-08T13:28:17;64.93;;;30.30;;
62030;SDS011;62035;52.094;5.112;2024-03-08T13:30:48;17.48;;;9.95;;
62030;SDS011;62035;52.094;5.112;2024-03-08T13:33:16;18.30;;;9.68;;
62030;SDS011;62035;52.094;5.112;2024-03-08T13:35:44;16.77;;;10.20;;
62030;SDS011;62035;52.094;5.112;2024-03-08T13:38:12;17.35;;;9.80;;
62030;SDS011;62035;52.094;5.112;2024-03-08T13:40:40;15.38;;;9.60;;
62030;SDS011;62035;52.094;5.112;2024-03-08T13:43:07;17.40;;;10.25;;
62030;SDS011;62035;52.094;5.112;2024-03-08T13:45:34;22.02;;;10.95;;
62030;SDS011;62035;52.094;5.112;2024-03-08T13:48:03;18.48;;;9.55;;
62030;SDS011;62035;52.094;5.112;2024-03-08T13:50:31;18.20;;;10.02;;
62030;SDS011;62035;52.094;5.112;2024-03-08T13:53:02;16.38;;;9.27;;
62030;SDS011;62035;52.094;5.112;2024-03-08T13:55:29;17.80;;;9.75;;
62030;SDS011;62035;52.094;5.112;2024-03-08T13:57:56;20.38;;;11.02;;
62030;SDS011;62035;52.094;5.112;2024-03-08T14:00:25;16.20;;;9.60;;
62030;SDS011;62035;52.094;5.112;2024-03-08T14:02:54;19.85;;;11.07;;
62030;SDS011;62035;52.094;5.112;2024-03-08T14:05:22;18.08;;;10.40;;
62030;SDS011;62035;52.094;5.112;2024-03-08T14:07:49;15.45;;;10.43;;
62030;SDS011;62035;52.094;5.112;2024-03-08T14:10:17;19.35;;;9.85;;
62030;SDS011;62035;52.094;5.112;2024-03-08T14:12:45;19.60;;;10.35;;
62030;SDS011;62035;52.094;5.112;2024-03-08T14:15:14;21.58;;;10.30;;
62030;SDS011;62035;52.094;5.112;2024-03-08T14:17:42;17.40;;;9.73;;
62030;SDS011;62035;52.094;5.112;2024-03-08T14:20:09;16.10;;;9.73;;
62030;SDS011;62035;52.094;5.112;2024-03-08T14:22:38;17.40;;;9.63;;
62030;SDS011;62035;52.094;5.112;2024-03-08T14:25:06;16.80;;;9.82;;
62030;SDS011;62035;52.094;5.112;2024-03-08T14:27:44;23.33;;;10.40;;
62030;SDS011;62035;52.094;5.112;2024-03-08T14:30:12;18.95;;;10.77;;
62030;SDS011;62035;52.094;5.112;2024-03-08T14:32:45;18.33;;;10.60;;
62030;SDS011;62035;52.094;5.112;2024-03-08T14:35:13;20.92;;;11.10;;
62030;SDS011;62035;52.094;5.112;2024-03-08T14:37:41;16.88;;;10.48;;
62030;SDS011;62035;52.094;5.112;2024-03-08T14:40:09;28.65;;;10.70;;